createdAt,value
2018-01-31T01:52:20.431Z,64.08
2018-01-31T01:53:01.824Z,61.81
2018-01-31T01:55:31.380Z,62.40
2018-01-31T01:58:01.275Z,63.39
2018-01-31T02:00:30.851Z,62.93
2018-01-31T02:03:00.449Z,63.58
2018-01-31T02:05:30.109Z,63.48
2018-01-31T02:07:59.928Z,63.78
2018-01-31T02:10:30.024Z,63.11
2018-01-31T02:13:00.549Z,62.24
2018-01-31T02:15:30.464Z,62.64
2018-01-31T02:18:00.147Z,61.29
2018-01-31T02:20:29.674Z,60.51
2018-01-31T02:22:59.373Z,61.57
2018-01-31T02:25:29.334Z,61.60
2018-01-31T02:27:59.404Z,60.87
2018-01-31T02:30:30.176Z,61.11
2018-01-31T02:33:00.093Z,61.50
2018-01-31T02:35:29.798Z,62.05
2018-01-31T02:37:59.383Z,61.54
2018-01-31T02:40:29.326Z,61.57
2018-01-31T02:42:58.892Z,61.67
2018-01-31T02:45:28.464Z,61.10
2018-01-31T02:47:58.468Z,61.16
2018-01-31T02:50:28.002Z,60.94
2018-01-31T02:52:57.559Z,59.99
2018-01-31T02:55:27.396Z,59.61
2018-01-31T02:57:57.276Z,60.71
2018-01-31T03:00:26.903Z,60.33
2018-01-31T03:02:56.713Z,60.15
2018-01-31T03:05:28.061Z,60.54
2018-01-31T03:07:59.402Z,60.16
2018-01-31T03:10:29.450Z,60.05
2018-01-31T03:12:59.607Z,60.48
2018-01-31T03:15:29.308Z,61.07
2018-01-31T03:17:59.198Z,60.90
2018-01-31T03:20:28.920Z,62.10
2018-01-31T03:22:59.249Z,61.79
2018-01-31T03:25:29.029Z,62.43
2018-01-31T03:27:59.017Z,62.70
2018-01-31T03:30:29.016Z,61.77
2018-01-31T03:32:59.286Z,62.25
2018-01-31T03:35:29.337Z,62.33
2018-01-31T03:37:59.577Z,62.70
2018-01-31T03:40:29.317Z,62.44
2018-01-31T03:42:59.715Z,62.44
2018-01-31T03:45:29.514Z,62.66
2018-01-31T03:47:59.059Z,63.08
2018-01-31T03:50:29.128Z,63.38
2018-01-31T03:52:59.276Z,62.68
2018-01-31T03:55:29.161Z,62.50
2018-01-31T03:57:59.218Z,62.97
2018-01-31T04:00:29.243Z,62.53
2018-01-31T04:02:59.482Z,63.01
2018-01-31T04:05:29.587Z,62.54
2018-01-31T04:07:59.776Z,64.00
2018-01-31T04:10:30.585Z,64.34
2018-01-31T04:13:00.590Z,64.85
2018-01-31T04:15:30.334Z,64.28
2018-01-31T04:18:00.462Z,63.81
2018-01-31T04:20:30.420Z,63.61
2018-01-31T04:23:00.303Z,63.04
2018-01-31T04:25:30.411Z,63.09
2018-01-31T04:28:00.676Z,62.90
2018-01-31T04:30:30.653Z,62.62
2018-01-31T04:33:01.429Z,62.93
2018-01-31T04:35:31.474Z,64.81
2018-01-31T04:38:01.153Z,65.21
2018-01-31T04:40:31.085Z,65.48
2018-01-31T04:43:00.934Z,64.98
2018-01-31T04:45:30.753Z,63.81
2018-01-31T04:48:00.700Z,63.79
2018-01-31T04:50:31.113Z,64.15
2018-01-31T04:53:01.004Z,64.19
2018-01-31T04:55:31.098Z,64.04
2018-01-31T04:58:01.188Z,64.71
2018-01-31T05:00:31.080Z,65.67
2018-01-31T05:03:01.080Z,64.88
2018-01-31T05:05:31.322Z,66.29
2018-01-31T05:08:01.253Z,65.32
2018-01-31T05:10:31.193Z,66.70
2018-01-31T05:13:01.275Z,66.87
2018-01-31T05:15:31.122Z,66.91
2018-01-31T05:18:00.872Z,66.71
2018-01-31T05:20:30.609Z,66.42
2018-01-31T05:23:00.624Z,67.10
2018-01-31T05:25:30.739Z,67.47
2018-01-31T05:28:00.468Z,67.63
2018-01-31T05:30:30.777Z,66.99
2018-01-31T05:33:00.697Z,67.37
2018-01-31T05:35:30.883Z,68.12
2018-01-31T05:38:00.608Z,68.41
2018-01-31T05:40:30.190Z,67.73
2018-01-31T05:43:00.543Z,67.73
2018-01-31T05:45:30.134Z,68.73
2018-01-31T05:48:00.153Z,68.27
2018-01-31T05:50:30.127Z,68.19
2018-01-31T05:52:59.948Z,68.87
2018-01-31T05:55:30.013Z,68.75
2018-01-31T05:58:00.266Z,69.17
2018-01-31T06:00:30.194Z,69.54
2018-01-31T06:02:59.774Z,68.66
2018-01-31T06:05:29.775Z,68.68
2018-01-31T06:08:00.101Z,68.53
2018-01-31T06:10:30.056Z,69.09
2018-01-31T06:12:59.657Z,69.90
2018-01-31T06:15:29.747Z,70.66
2018-01-31T06:17:59.665Z,70.22
2018-01-31T06:20:29.592Z,70.65
2018-01-31T06:22:59.649Z,70.33
2018-01-31T06:25:29.201Z,70.29
2018-01-31T06:27:59.104Z,70.42
2018-01-31T06:30:28.985Z,70.52
2018-01-31T06:33:00.071Z,69.49
2018-01-31T06:35:29.693Z,69.90
2018-01-31T06:38:00.172Z,70.01
2018-01-31T06:40:29.910Z,70.02
2018-01-31T06:42:59.512Z,70.28
2018-01-31T06:45:29.302Z,70.46
2018-01-31T06:47:59.385Z,69.61
2018-01-31T06:50:28.972Z,69.86
2018-01-31T06:52:58.585Z,69.72
2018-01-31T06:55:28.504Z,70.10
2018-01-31T06:57:58.048Z,70.17
2018-01-31T07:00:27.669Z,69.54
2018-01-31T07:02:57.835Z,68.84
2018-01-31T07:05:27.622Z,68.46
2018-01-31T07:07:57.197Z,68.30
2018-01-31T07:10:27.060Z,68.04
2018-01-31T07:12:56.781Z,67.99
2018-01-31T07:15:26.988Z,67.58
2018-01-31T07:17:57.007Z,67.09
2018-01-31T07:20:26.586Z,66.51
2018-01-31T07:22:56.364Z,66.85
2018-01-31T07:25:25.936Z,66.42
2018-01-31T07:27:56.008Z,66.66
2018-01-31T07:30:25.556Z,66.86
2018-01-31T07:32:55.309Z,66.82
2018-01-31T07:35:25.326Z,66.96
2018-01-31T07:37:54.999Z,66.67
2018-01-31T07:40:25.269Z,66.05
2018-01-31T07:42:54.896Z,65.26
2018-01-31T07:45:24.744Z,65.24
2018-01-31T07:47:54.343Z,65.65
2018-01-31T07:50:23.882Z,65.56
2018-01-31T07:52:53.740Z,66.00
2018-01-31T07:55:23.408Z,66.07
2018-01-31T07:57:53.082Z,66.24
2018-01-31T08:00:23.583Z,66.43
2018-01-31T08:02:53.510Z,66.08
2018-01-31T08:05:23.625Z,66.52
2018-01-31T08:07:53.651Z,67.36
2018-01-31T08:10:23.310Z,66.91
2018-01-31T08:12:52.957Z,67.15
2018-01-31T08:15:23.166Z,67.47
2018-01-31T08:17:53.468Z,68.10
2018-01-31T08:20:23.076Z,69.12
2018-01-31T08:22:53.324Z,69.81
2018-01-31T08:25:22.901Z,69.24
2018-01-31T08:27:52.542Z,69.31
2018-01-31T08:30:23.491Z,70.14
2018-01-31T08:32:53.050Z,70.24
2018-01-31T08:35:22.607Z,70.10
2018-01-31T08:37:52.223Z,69.85
2018-01-31T08:40:22.281Z,69.45
2018-01-31T08:42:51.944Z,69.34
2018-01-31T08:45:21.697Z,69.31
2018-01-31T08:47:51.648Z,68.92
2018-01-31T08:50:21.310Z,67.99
2018-01-31T08:52:51.050Z,68.04
2018-01-31T08:55:21.104Z,66.84
2018-01-31T08:57:50.836Z,67.06
2018-01-31T09:00:20.518Z,66.58
2018-01-31T09:02:50.417Z,65.59
2018-01-31T09:05:20.302Z,65.36
2018-01-31T09:07:49.853Z,64.67
2018-01-31T09:10:19.770Z,65.09
2018-01-31T09:12:49.389Z,65.74
2018-01-31T09:15:19.460Z,65.55
2018-01-31T09:17:49.128Z,64.82
2018-01-31T09:20:19.029Z,65.34
2018-01-31T09:22:48.653Z,65.37
2018-01-31T09:25:18.331Z,64.61
2018-01-31T09:27:48.292Z,64.81
2018-01-31T09:30:18.030Z,64.52
2018-01-31T09:32:47.781Z,64.52
2018-01-31T09:35:17.766Z,63.80
2018-01-31T09:37:48.289Z,63.94
2018-01-31T09:40:18.284Z,63.96
2018-01-31T09:42:48.576Z,64.14
2018-01-31T09:45:18.322Z,64.60
2018-01-31T09:47:47.905Z,64.38
2018-01-31T09:50:17.828Z,63.49
2018-01-31T09:52:47.461Z,63.54
2018-01-31T09:55:17.048Z,64.17
2018-01-31T09:57:46.940Z,64.21
2018-01-31T10:00:16.521Z,64.40
2018-01-31T10:02:46.124Z,65.63
2018-01-31T10:05:16.092Z,65.13
2018-01-31T10:07:45.794Z,65.62
2018-01-31T10:10:15.369Z,64.66
2018-01-31T10:12:45.293Z,64.00
2018-01-31T10:15:15.285Z,63.32
2018-01-31T10:17:45.528Z,63.52
2018-01-31T10:20:15.127Z,63.85
2018-01-31T10:22:45.095Z,63.96
2018-01-31T10:25:14.859Z,63.33
2018-01-31T10:27:44.552Z,62.92
2018-01-31T10:30:14.619Z,62.53
2018-01-31T10:32:44.295Z,61.72
2018-01-31T10:35:13.944Z,62.11
2018-01-31T10:37:43.636Z,61.97
2018-01-31T10:40:13.524Z,62.26
2018-01-31T10:42:43.740Z,62.20
2018-01-31T10:45:13.408Z,60.75
2018-01-31T10:47:43.342Z,60.40
2018-01-31T10:50:13.041Z,60.22
2018-01-31T10:52:42.848Z,61.16
2018-01-31T10:57:28.401Z,61.12
2018-01-31T10:57:42.985Z,59.95
2018-01-31T11:00:12.910Z,59.70
2018-01-31T11:02:42.880Z,59.14
2018-01-31T11:05:12.503Z,60.04
2018-01-31T11:07:42.695Z,59.51
2018-01-31T11:10:12.954Z,59.62
2018-01-31T11:12:42.605Z,59.03
2018-01-31T11:15:12.373Z,58.53
2018-01-31T11:17:42.018Z,58.55
2018-01-31T11:20:11.957Z,58.96
2018-01-31T11:22:41.727Z,59.36
2018-01-31T11:25:11.477Z,59.32
2018-01-31T11:27:41.566Z,58.71
2018-01-31T11:30:11.554Z,58.86
2018-01-31T11:32:41.300Z,58.62
2018-01-31T11:35:11.378Z,58.55
2018-01-31T11:37:41.352Z,58.71
2018-01-31T11:40:11.105Z,59.79
2018-01-31T11:42:40.701Z,60.62
2018-01-31T11:45:10.376Z,60.86
2018-01-31T11:47:40.265Z,60.24
2018-01-31T11:50:10.362Z,61.17
2018-01-31T11:52:39.931Z,61.86
2018-01-31T11:55:09.874Z,61.53
2018-01-31T11:57:39.463Z,61.27
2018-01-31T12:00:09.300Z,60.85
2018-01-31T12:02:39.217Z,60.59
2018-01-31T12:05:09.261Z,60.73
2018-01-31T12:07:38.989Z,61.90
2018-01-31T12:10:09.206Z,62.34
2018-01-31T12:12:47.403Z,62.32
2018-01-31T12:15:25.943Z,61.02
2018-01-31T12:17:55.521Z,60.77
2018-01-31T12:20:35.812Z,60.83
2018-01-31T12:25:21.704Z,60.96
2018-01-31T12:28:02.221Z,61.88
2018-01-31T12:30:41.736Z,61.56
2018-01-31T12:35:30.263Z,60.85
2018-01-31T12:38:11.060Z,60.06
2018-01-31T12:40:39.091Z,59.71
2018-01-31T12:43:07.165Z,59.47
2018-01-31T12:45:35.465Z,58.62
2018-01-31T12:48:05.312Z,58.60
2018-01-31T12:51:52.679Z,59.27
2018-01-31T12:54:33.056Z,59.74
2018-01-31T12:57:46.334Z,59.03
2018-01-31T13:01:00.449Z,59.80
2018-01-31T13:05:41.713Z,59.88
2018-01-31T13:09:25.401Z,60.16
2018-01-31T13:12:06.065Z,60.63
2018-01-31T13:14:48.056Z,60.91
2018-01-31T13:17:30.309Z,60.51
2018-01-31T13:22:15.496Z,60.53
2018-01-31T13:24:55.778Z,61.10
2018-01-31T13:27:32.831Z,60.91
2018-01-31T13:32:15.697Z,61.21
2018-01-31T13:35:08.001Z,61.88
2018-01-31T13:37:54.214Z,62.85
2018-01-31T13:42:42.544Z,62.19
2018-01-31T13:47:30.423Z,62.54
2018-01-31T13:50:10.697Z,62.89
2018-01-31T13:54:55.216Z,62.46
2018-01-31T13:57:39.459Z,62.64
2018-01-31T14:00:19.999Z,62.25
2018-01-31T14:03:00.183Z,61.65
2018-01-31T14:05:40.850Z,61.47
2018-01-31T14:10:25.485Z,61.32
2018-01-31T14:15:12.490Z,61.74
2018-01-31T14:19:56.957Z,61.87
2018-01-31T14:24:45.524Z,63.01
2018-01-31T14:29:30.528Z,63.68
2018-01-31T14:35:26.480Z,64.47
2018-01-31T14:37:59.922Z,63.25
2018-01-31T14:40:34.514Z,62.15
2018-01-31T14:43:04.485Z,62.43
2018-01-31T14:45:32.832Z,61.88
2018-01-31T14:48:00.759Z,61.50
2018-01-31T14:50:29.006Z,61.46
2018-01-31T14:53:01.038Z,61.56
2018-01-31T14:55:32.337Z,61.95
2018-01-31T14:58:05.057Z,62.05
2018-01-31T15:00:35.199Z,62.66
2018-01-31T15:03:06.605Z,62.36
2018-01-31T15:05:35.986Z,61.77
2018-01-31T15:08:04.738Z,61.77
2018-01-31T15:10:33.591Z,61.74
2018-01-31T15:13:02.912Z,61.65
2018-01-31T15:15:32.332Z,62.49
2018-01-31T15:18:01.423Z,61.98
2018-01-31T15:20:32.291Z,62.24
2018-01-31T15:23:02.786Z,62.26
2018-01-31T15:25:33.888Z,60.92
2018-01-31T15:28:04.237Z,60.81
2018-01-31T15:30:35.642Z,60.85
2018-01-31T15:33:05.240Z,61.69
2018-01-31T15:35:34.741Z,61.77
2018-01-31T15:38:07.051Z,61.30
2018-01-31T15:40:35.786Z,60.82
2018-01-31T15:43:07.570Z,61.22
2018-01-31T15:45:36.462Z,60.98
2018-01-31T15:48:06.273Z,61.43
2018-01-31T15:50:51.353Z,62.07
2018-01-31T15:53:22.749Z,61.92
2018-01-31T15:55:54.969Z,61.82
2018-01-31T15:58:27.699Z,61.49
2018-01-31T16:01:05.183Z,62.03
2018-01-31T16:03:39.755Z,61.47
2018-01-31T16:06:08.341Z,61.24
2018-01-31T16:08:36.288Z,61.34
2018-01-31T16:11:06.375Z,61.78
2018-01-31T16:13:34.583Z,61.71
2018-01-31T16:16:02.544Z,62.15
2018-01-31T16:18:40.943Z,62.86
2018-01-31T16:21:24.606Z,62.76
2018-01-31T16:23:54.252Z,63.44
2018-01-31T16:26:28.111Z,64.22
2018-01-31T16:29:08.515Z,64.84
2018-01-31T16:33:57.683Z,65.58
2018-01-31T16:36:28.084Z,66.42
2018-01-31T16:38:59.122Z,65.78
2018-01-31T16:41:29.346Z,65.26
2018-01-31T16:43:59.656Z,64.61
2018-01-31T16:46:29.585Z,64.36
2018-01-31T16:48:59.149Z,64.38
2018-01-31T16:51:56.585Z,63.85
2018-01-31T16:54:26.501Z,63.69
2018-01-31T16:56:56.310Z,63.78
2018-01-31T16:59:26.144Z,64.07
2018-01-31T17:01:56.513Z,63.98
2018-01-31T17:04:26.142Z,63.99
2018-01-31T17:06:55.987Z,64.81
2018-01-31T17:09:25.845Z,64.43
2018-01-31T17:11:55.417Z,63.55
2018-01-31T17:14:25.180Z,63.58
2018-01-31T17:16:55.148Z,63.42
2018-01-31T17:19:24.724Z,64.15
2018-01-31T17:21:54.238Z,63.32
2018-01-31T17:24:24.122Z,63.23
2018-01-31T17:26:53.952Z,63.25
2018-01-31T17:29:23.556Z,63.15
2018-01-31T17:31:53.442Z,62.76
2018-01-31T17:34:23.282Z,62.24
2018-01-31T17:36:52.806Z,62.74
2018-01-31T17:39:22.790Z,62.32
2018-01-31T17:41:52.505Z,62.78
2018-01-31T17:44:22.139Z,62.74
2018-01-31T17:46:52.393Z,63.10
2018-01-31T17:49:21.985Z,63.38
2018-01-31T17:51:51.671Z,62.31
2018-01-31T17:54:21.659Z,62.22
2018-01-31T17:56:51.247Z,62.66
2018-01-31T17:59:20.919Z,63.12
2018-01-31T18:01:50.874Z,62.67
2018-01-31T18:04:20.557Z,62.20
2018-01-31T18:06:50.123Z,62.38
2018-01-31T18:09:20.261Z,62.07
2018-01-31T18:11:49.909Z,62.30
2018-01-31T18:14:19.919Z,62.21
2018-01-31T18:16:49.952Z,62.22
2018-01-31T18:19:19.776Z,62.85
2018-01-31T18:21:50.420Z,62.57
2018-01-31T18:24:20.350Z,62.99
2018-01-31T18:26:50.586Z,62.64
2018-01-31T18:29:20.806Z,62.96
2018-01-31T18:31:50.791Z,62.70
2018-01-31T18:34:22.685Z,62.50
2018-01-31T18:36:55.730Z,63.73
2018-01-31T18:39:29.215Z,63.40
2018-01-31T18:42:02.304Z,63.38
2018-01-31T18:44:34.214Z,63.11
2018-01-31T18:47:04.152Z,63.02
2018-01-31T18:49:33.735Z,62.99
2018-01-31T18:52:03.384Z,61.93
2018-01-31T18:54:33.297Z,62.23
2018-01-31T18:57:02.988Z,62.10
2018-01-31T18:59:32.584Z,61.74
2018-01-31T19:02:02.849Z,61.76
2018-01-31T19:04:32.438Z,61.03
2018-01-31T19:07:02.197Z,60.84
2018-01-31T19:09:32.299Z,61.05
2018-01-31T19:12:02.257Z,61.91
2018-01-31T19:14:31.884Z,62.43
2018-01-31T19:17:01.937Z,63.42
2018-01-31T19:19:31.685Z,63.41
2018-01-31T19:22:01.420Z,61.99
2018-01-31T19:24:33.165Z,62.34
2018-01-31T19:27:02.777Z,61.58
2018-01-31T19:29:32.454Z,61.33
2018-01-31T19:32:02.434Z,61.95
2018-01-31T19:34:32.271Z,62.68
2018-01-31T19:37:02.229Z,62.50
2018-01-31T19:39:32.217Z,62.25
2018-01-31T19:42:02.240Z,62.40
2018-01-31T19:44:32.069Z,61.87
2018-01-31T19:47:02.152Z,61.61
2018-01-31T19:49:33.253Z,60.22
2018-01-31T19:52:02.848Z,59.77
2018-01-31T19:54:32.841Z,59.95
